sensor_id;sensor_type;location;lat;lon;timestamp;temperature;humidity
43520;DHT22;46848;51.980;5.918;2024-02-21T00:01:36;10.80;87.50
43520;DHT22;46848;51.980;5.918;2024-02-21T00:04:02;10.80;87.40
43520;DHT22;46848;51.980;5.918;2024-02-21T00:06:28;10.80;87.50
43520;DHT22;46848;51.980;5.918;2024-02-21T00:08:53;10.80;87.40
43520;DHT22;46848;51.980;5.918;2024-02-21T00:11:19;10.80;87.40
43520;DHT22;46848;51.980;5.918;2024-02-21T00:13:44;10.70;87.30
43520;DHT22;46848;51.980;5.918;2024-02-21T00:16:10;10.80;87.40
43520;DHT22;46848;51.980;5.918;2024-02-21T00:18:36;10.70;87.50
43520;DHT22;46848;51.980;5.918;2024-02-21T00:21:02;10.70;87.50
43520;DHT22;46848;51.980;5.918;2024-02-21T00:23:28;10.70;87.50
43520;DHT22;46848;51.980;5.918;2024-02-21T00:25:54;10.70;87.50
43520;DHT22;46848;51.980;5.918;2024-02-21T00:28:19;10.70;87.80
43520;DHT22;46848;51.980;5.918;2024-02-21T00:30:45;10.70;87.70
43520;DHT22;46848;51.980;5.918;2024-02-21T00:33:13;10.70;87.60
43520;DHT22;46848;51.980;5.918;2024-02-21T00:35:39;10.80;87.60
43520;DHT22;46848;51.980;5.918;2024-02-21T00:38:04;10.70;87.50
43520;DHT22;46848;51.980;5.918;2024-02-21T00:40:30;10.80;87.50
43520;DHT22;46848;51.980;5.918;2024-02-21T00:42:56;10.80;87.50
43520;DHT22;46848;51.980;5.918;2024-02-21T00:45:22;10.80;87.50
43520;DHT22;46848;51.980;5.918;2024-02-21T00:47:47;10.80;87.50
43520;DHT22;46848;51.980;5.918;2024-02-21T00:50:13;10.80;88.10
43520;DHT22;46848;51.980;5.918;2024-02-21T00:52:38;10.80;87.60
43520;DHT22;46848;51.980;5.918;2024-02-21T00:55:05;10.80;87.40
43520;DHT22;46848;51.980;5.918;2024-02-21T00:57:30;10.80;87.50
43520;DHT22;46848;51.980;5.918;2024-02-21T00:59:57;10.90;87.40
43520;DHT22;46848;51.980;5.918;2024-02-21T01:02:23;10.80;87.50
43520;DHT22;46848;51.980;5.918;2024-02-21T01:04:48;10.80;87.30
43520;DHT22;46848;51.980;5.918;2024-02-21T01:07:14;10.80;87.30
43520;DHT22;46848;51.980;5.918;2024-02-21T01:09:39;10.80;87.30
43520;DHT22;46848;51.980;5.918;2024-02-21T01:12:05;10.80;87.30
43520;DHT22;46848;51.980;5.918;2024-02-21T01:14:31;10.80;87.40
43520;DHT22;46848;51.980;5.918;2024-02-21T01:16:57;10.80;87.40
43520;DHT22;46848;51.980;5.918;2024-02-21T01:19:22;10.80;87.30
43520;DHT22;46848;51.980;5.918;2024-02-21T01:21:48;10.80;87.30
43520;DHT22;46848;51.980;5.918;2024-02-21T01:24:13;10.80;87.40
43520;DHT22;46848;51.980;5.918;2024-02-21T01:26:40;10.80;87.30
43520;DHT22;46848;51.980;5.918;2024-02-21T01:29:05;10.80;87.40
43520;DHT22;46848;51.980;5.918;2024-02-21T01:31:31;10.80;87.30
43520;DHT22;46848;51.980;5.918;2024-02-21T01:33:57;10.80;87.30
43520;DHT22;46848;51.980;5.918;2024-02-21T01:36:23;10.80;87.30
43520;DHT22;46848;51.980;5.918;2024-02-21T01:38:49;10.80;87.40
43520;DHT22;46848;51.980;5.918;2024-02-21T01:41:14;10.80;87.40
43520;DHT22;46848;51.980;5.918;2024-02-21T01:43:41;10.80;87.40
43520;DHT22;46848;51.980;5.918;2024-02-21T01:46:07;10.80;87.40
43520;DHT22;46848;51.980;5.918;2024-02-21T01:48:33;10.80;87.60
43520;DHT22;46848;51.980;5.918;2024-02-21T01:50:58;10.80;87.60
43520;DHT22;46848;51.980;5.918;2024-02-21T01:53:34;10.80;87.60
43520;DHT22;46848;51.980;5.918;2024-02-21T01:56:00;10.80;87.60
43520;DHT22;46848;51.980;5.918;2024-02-21T01:58:27;10.80;87.50
43520;DHT22;46848;51.980;5.918;2024-02-21T02:00:56;10.90;87.50
43520;DHT22;46848;51.980;5.918;2024-02-21T02:03:22;10.90;87.50
43520;DHT22;46848;51.980;5.918;2024-02-21T02:05:49;10.80;87.40
43520;DHT22;46848;51.980;5.918;2024-02-21T02:08:15;10.80;87.50
43520;DHT22;46848;51.980;5.918;2024-02-21T02:10:41;10.80;87.40
43520;DHT22;46848;51.980;5.918;2024-02-21T02:13:07;10.80;87.50
43520;DHT22;46848;51.980;5.918;2024-02-21T02:15:44;10.80;88.10
43520;DHT22;46848;51.980;5.918;2024-02-21T02:18:11;10.90;87.60
43520;DHT22;46848;51.980;5.918;2024-02-21T02:20:37;10.80;87.50
43520;DHT22;46848;51.980;5.918;2024-02-21T02:23:27;10.80;87.50
43520;DHT22;46848;51.980;5.918;2024-02-21T02:25:53;10.80;87.50
43520;DHT22;46848;51.980;5.918;2024-02-21T02:28:19;10.80;87.60
43520;DHT22;46848;51.980;5.918;2024-02-21T02:30:45;10.80;87.50
43520;DHT22;46848;51.980;5.918;2024-02-21T02:33:10;10.80;87.50
43520;DHT22;46848;51.980;5.918;2024-02-21T02:35:36;10.70;87.60
43520;DHT22;46848;51.980;5.918;2024-02-21T02:38:02;10.70;88.00
43520;DHT22;46848;51.980;5.918;2024-02-21T02:40:28;10.60;87.90
43520;DHT22;46848;51.980;5.918;2024-02-21T02:42:54;10.60;87.90
43520;DHT22;46848;51.980;5.918;2024-02-21T02:45:23;10.60;87.90
43520;DHT22;46848;51.980;5.918;2024-02-21T02:47:55;10.60;87.80
43520;DHT22;46848;51.980;5.918;2024-02-21T02:50:22;10.60;87.80
43520;DHT22;46848;51.980;5.918;2024-02-21T02:52:48;10.60;87.80
43520;DHT22;46848;51.980;5.918;2024-02-21T02:55:13;10.60;87.90
43520;DHT22;46848;51.980;5.918;2024-02-21T02:57:39;10.60;87.90
43520;DHT22;46848;51.980;5.918;2024-02-21T03:00:08;10.60;87.90
43520;DHT22;46848;51.980;5.918;2024-02-21T03:02:35;10.60;87.80
43520;DHT22;46848;51.980;5.918;2024-02-21T03:05:00;10.60;88.50
43520;DHT22;46848;51.980;5.918;2024-02-21T03:07:26;10.60;87.80
43520;DHT22;46848;51.980;5.918;2024-02-21T03:09:51;10.60;87.80
43520;DHT22;46848;51.980;5.918;2024-02-21T03:12:18;10.70;87.90
43520;DHT22;46848;51.980;5.918;2024-02-21T03:14:50;10.70;87.80
43520;DHT22;46848;51.980;5.918;2024-02-21T03:17:16;10.70;87.80
43520;DHT22;46848;51.980;5.918;2024-02-21T03:19:41;10.70;87.70
43520;DHT22;46848;51.980;5.918;2024-02-21T03:22:07;10.70;87.60
43520;DHT22;46848;51.980;5.918;2024-02-21T03:24:33;10.60;87.60
43520;DHT22;46848;51.980;5.918;2024-02-21T03:26:59;10.60;87.60
43520;DHT22;46848;51.980;5.918;2024-02-21T03:29:25;10.70;87.70
43520;DHT22;46848;51.980;5.918;2024-02-21T03:31:51;10.70;87.70
43520;DHT22;46848;51.980;5.918;2024-02-21T03:34:16;10.60;87.70
43520;DHT22;46848;51.980;5.918;2024-02-21T03:36:42;10.60;87.70
43520;DHT22;46848;51.980;5.918;2024-02-21T03:39:07;10.60;87.70
43520;DHT22;46848;51.980;5.918;2024-02-21T03:41:34;10.60;87.60
43520;DHT22;46848;51.980;5.918;2024-02-21T03:44:00;10.70;87.70
43520;DHT22;46848;51.980;5.918;2024-02-21T03:46:26;10.60;87.60
43520;DHT22;46848;51.980;5.918;2024-02-21T03:48:52;10.70;87.80
43520;DHT22;46848;51.980;5.918;2024-02-21T03:51:18;10.70;87.80
43520;DHT22;46848;51.980;5.918;2024-02-21T03:53:43;10.60;87.60
43520;DHT22;46848;51.980;5.918;2024-02-21T03:56:09;10.70;87.70
43520;DHT22;46848;51.980;5.918;2024-02-21T03:58:34;10.60;87.60
43520;DHT22;46848;51.980;5.918;2024-02-21T04:01:01;10.70;87.70
43520;DHT22;46848;51.980;5.918;2024-02-21T04:03:30;10.60;87.70
43520;DHT22;46848;51.980;5.918;2024-02-21T04:05:56;10.60;87.70
43520;DHT22;46848;51.980;5.918;2024-02-21T04:08:22;10.60;87.70
43520;DHT22;46848;51.980;5.918;2024-02-21T04:10:48;10.60;87.60
43520;DHT22;46848;51.980;5.918;2024-02-21T04:13:14;10.70;87.70
43520;DHT22;46848;51.980;5.918;2024-02-21T04:15:39;10.60;87.70
43520;DHT22;46848;51.980;5.918;2024-02-21T04:18:05;10.70;87.60
43520;DHT22;46848;51.980;5.918;2024-02-21T04:20:31;10.70;87.60
43520;DHT22;46848;51.980;5.918;2024-02-21T04:22:57;10.60;87.60
43520;DHT22;46848;51.980;5.918;2024-02-21T04:25:23;10.60;87.40
43520;DHT22;46848;51.980;5.918;2024-02-21T04:27:49;10.60;87.40
43520;DHT22;46848;51.980;5.918;2024-02-21T04:30:14;10.60;87.40
43520;DHT22;46848;51.980;5.918;2024-02-21T04:32:41;10.60;87.40
43520;DHT22;46848;51.980;5.918;2024-02-21T04:35:07;10.70;87.50
43520;DHT22;46848;51.980;5.918;2024-02-21T04:37:32;10.60;87.40
43520;DHT22;46848;51.980;5.918;2024-02-21T04:39:58;10.60;87.40
43520;DHT22;46848;51.980;5.918;2024-02-21T04:42:23;10.60;87.40
43520;DHT22;46848;51.980;5.918;2024-02-21T04:44:49;10.60;87.30
43520;DHT22;46848;51.980;5.918;2024-02-21T04:47:14;10.60;87.30
43520;DHT22;46848;51.980;5.918;2024-02-21T04:49:40;10.60;87.30
43520;DHT22;46848;51.980;5.918;2024-02-21T04:52:06;10.60;87.30
43520;DHT22;46848;51.980;5.918;2024-02-21T04:54:31;10.60;87.30
43520;DHT22;46848;51.980;5.918;2024-02-21T04:56:57;10.60;87.30
43520;DHT22;46848;51.980;5.918;2024-02-21T04:59:22;10.60;87.30
43520;DHT22;46848;51.980;5.918;2024-02-21T05:01:48;10.60;87.30
43520;DHT22;46848;51.980;5.918;2024-02-21T05:04:13;10.60;87.30
43520;DHT22;46848;51.980;5.918;2024-02-21T05:06:40;10.60;87.30
43520;DHT22;46848;51.980;5.918;2024-02-21T05:09:06;10.60;87.30
43520;DHT22;46848;51.980;5.918;2024-02-21T05:11:32;10.70;87.30
43520;DHT22;46848;51.980;5.918;2024-02-21T05:13:58;10.60;87.20
43520;DHT22;46848;51.980;5.918;2024-02-21T05:16:23;10.60;87.30
43520;DHT22;46848;51.980;5.918;2024-02-21T05:18:49;10.60;87.20
43520;DHT22;46848;51.980;5.918;2024-02-21T05:21:14;10.60;87.20
43520;DHT22;46848;51.980;5.918;2024-02-21T05:23:40;10.60;87.20
43520;DHT22;46848;51.980;5.918;2024-02-21T05:26:06;10.60;87.20
43520;DHT22;46848;51.980;5.918;2024-02-21T05:28:32;10.60;87.10
43520;DHT22;46848;51.980;5.918;2024-02-21T05:30:57;10.60;87.20
43520;DHT22;46848;51.980;5.918;2024-02-21T05:33:24;10.60;87.10
43520;DHT22;46848;51.980;5.918;2024-02-21T05:35:50;10.60;87.20
43520;DHT22;46848;51.980;5.918;2024-02-21T05:38:16;10.60;87.10
43520;DHT22;46848;51.980;5.918;2024-02-21T05:40:42;10.60;87.10
43520;DHT22;46848;51.980;5.918;2024-02-21T05:43:08;10.60;87.10
43520;DHT22;46848;51.980;5.918;2024-02-21T05:45:34;10.60;87.10
43520;DHT22;46848;51.980;5.918;2024-02-21T05:48:00;10.60;87.10
43520;DHT22;46848;51.980;5.918;2024-02-21T05:50:26;10.60;87.10
43520;DHT22;46848;51.980;5.918;2024-02-21T05:52:54;10.60;87.00
43520;DHT22;46848;51.980;5.918;2024-02-21T05:55:21;10.70;87.10
43520;DHT22;46848;51.980;5.918;2024-02-21T05:57:46;10.70;87.00
43520;DHT22;46848;51.980;5.918;2024-02-21T06:00:13;10.70;87.00
43520;DHT22;46848;51.980;5.918;2024-02-21T06:02:38;10.70;87.00
43520;DHT22;46848;51.980;5.918;2024-02-21T06:05:05;10.60;87.00
43520;DHT22;46848;51.980;5.918;2024-02-21T06:07:33;10.70;87.20
43520;DHT22;46848;51.980;5.918;2024-02-21T06:09:58;10.60;87.10
43520;DHT22;46848;51.980;5.918;2024-02-21T06:12:24;10.60;87.00
43520;DHT22;46848;51.980;5.918;2024-02-21T06:14:49;10.70;87.10
43520;DHT22;46848;51.980;5.918;2024-02-21T06:17:15;10.70;87.00
43520;DHT22;46848;51.980;5.918;2024-02-21T06:19:42;10.60;86.90
43520;DHT22;46848;51.980;5.918;2024-02-21T06:22:08;10.60;86.90
43520;DHT22;46848;51.980;5.918;2024-02-21T06:24:35;10.60;86.90
43520;DHT22;46848;51.980;5.918;2024-02-21T06:27:02;10.70;87.00
43520;DHT22;46848;51.980;5.918;2024-02-21T06:29:27;10.70;87.00
43520;DHT22;46848;51.980;5.918;2024-02-21T06:31:53;10.70;86.90
43520;DHT22;46848;51.980;5.918;2024-02-21T06:34:18;10.60;86.80
43520;DHT22;46848;51.980;5.918;2024-02-21T06:36:45;10.60;86.80
43520;DHT22;46848;51.980;5.918;2024-02-21T06:39:11;10.60;86.80
43520;DHT22;46848;51.980;5.918;2024-02-21T06:41:37;10.60;86.80
43520;DHT22;46848;51.980;5.918;2024-02-21T06:44:03;10.60;86.90
43520;DHT22;46848;51.980;5.918;2024-02-21T06:46:29;10.60;86.90
43520;DHT22;46848;51.980;5.918;2024-02-21T06:48:55;10.60;86.90
43520;DHT22;46848;51.980;5.918;2024-02-21T06:51:24;10.60;86.80
43520;DHT22;46848;51.980;5.918;2024-02-21T06:53:50;10.60;86.80
43520;DHT22;46848;51.980;5.918;2024-02-21T06:56:15;10.70;86.70
43520;DHT22;46848;51.980;5.918;2024-02-21T06:58:41;10.70;86.70
43520;DHT22;46848;51.980;5.918;2024-02-21T07:01:07;10.60;86.60
43520;DHT22;46848;51.980;5.918;2024-02-21T07:03:33;10.70;86.60
43520;DHT22;46848;51.980;5.918;2024-02-21T07:05:59;10.70;86.60
43520;DHT22;46848;51.980;5.918;2024-02-21T07:08:24;10.70;86.60
43520;DHT22;46848;51.980;5.918;2024-02-21T07:10:50;10.60;87.10
43520;DHT22;46848;51.980;5.918;2024-02-21T07:13:15;10.70;86.50
43520;DHT22;46848;51.980;5.918;2024-02-21T07:15:41;10.70;86.50
43520;DHT22;46848;51.980;5.918;2024-02-21T07:18:07;10.80;86.60
43520;DHT22;46848;51.980;5.918;2024-02-21T07:20:33;10.90;86.50
43520;DHT22;46848;51.980;5.918;2024-02-21T07:23:02;11.00;86.50
43520;DHT22;46848;51.980;5.918;2024-02-21T07:25:27;11.00;86.20
43520;DHT22;46848;51.980;5.918;2024-02-21T07:27:53;11.00;86.10
43520;DHT22;46848;51.980;5.918;2024-02-21T07:30:19;11.10;85.90
43520;DHT22;46848;51.980;5.918;2024-02-21T07:32:44;11.20;85.80
43520;DHT22;46848;51.980;5.918;2024-02-21T07:35:10;11.20;85.80
43520;DHT22;46848;51.980;5.918;2024-02-21T07:37:37;11.20;85.80
43520;DHT22;46848;51.980;5.918;2024-02-21T07:40:05;11.30;85.80
43520;DHT22;46848;51.980;5.918;2024-02-21T07:42:31;11.30;85.80
43520;DHT22;46848;51.980;5.918;2024-02-21T07:44:56;11.40;85.50
43520;DHT22;46848;51.980;5.918;2024-02-21T07:47:22;11.40;85.40
43520;DHT22;46848;51.980;5.918;2024-02-21T07:49:48;11.40;85.30
43520;DHT22;46848;51.980;5.918;2024-02-21T07:52:14;11.50;85.30
43520;DHT22;46848;51.980;5.918;2024-02-21T07:54:41;11.50;85.20
43520;DHT22;46848;51.980;5.918;2024-02-21T07:57:07;11.50;85.00
43520;DHT22;46848;51.980;5.918;2024-02-21T07:59:33;11.60;85.00
43520;DHT22;46848;51.980;5.918;2024-02-21T08:01:58;11.60;84.80
43520;DHT22;46848;51.980;5.918;2024-02-21T08:04:24;11.60;84.90
43520;DHT22;46848;51.980;5.918;2024-02-21T08:06:54;11.60;84.90
43520;DHT22;46848;51.980;5.918;2024-02-21T08:09:24;11.60;84.90
43520;DHT22;46848;51.980;5.918;2024-02-21T08:11:49;11.70;84.90
43520;DHT22;46848;51.980;5.918;2024-02-21T08:14:15;11.70;84.80
43520;DHT22;46848;51.980;5.918;2024-02-21T08:16:42;11.70;84.50
43520;DHT22;46848;51.980;5.918;2024-02-21T08:19:08;11.80;84.50
43520;DHT22;46848;51.980;5.918;2024-02-21T08:21:33;11.70;84.40
43520;DHT22;46848;51.980;5.918;2024-02-21T08:23:59;11.80;84.20
43520;DHT22;46848;51.980;5.918;2024-02-21T08:26:25;11.80;84.10
43520;DHT22;46848;51.980;5.918;2024-02-21T08:28:53;11.80;84.10
43520;DHT22;46848;51.980;5.918;2024-02-21T08:31:19;11.80;84.30
43520;DHT22;46848;51.980;5.918;2024-02-21T08:33:45;11.80;83.90
43520;DHT22;46848;51.980;5.918;2024-02-21T08:36:18;11.80;83.90
43520;DHT22;46848;51.980;5.918;2024-02-21T08:38:44;11.80;83.80
43520;DHT22;46848;51.980;5.918;2024-02-21T08:41:10;11.80;83.60
43520;DHT22;46848;51.980;5.918;2024-02-21T08:43:36;11.80;83.60
43520;DHT22;46848;51.980;5.918;2024-02-21T08:46:02;11.80;83.70
43520;DHT22;46848;51.980;5.918;2024-02-21T08:48:27;11.90;83.80
43520;DHT22;46848;51.980;5.918;2024-02-21T08:50:53;11.80;83.50
43520;DHT22;46848;51.980;5.918;2024-02-21T08:53:20;11.90;83.60
43520;DHT22;46848;51.980;5.918;2024-02-21T08:55:45;11.90;83.50
43520;DHT22;46848;51.980;5.918;2024-02-21T08:58:11;11.90;83.60
43520;DHT22;46848;51.980;5.918;2024-02-21T09:00:37;11.90;83.50
43520;DHT22;46848;51.980;5.918;2024-02-21T09:03:03;11.90;83.30
43520;DHT22;46848;51.980;5.918;2024-02-21T09:05:28;11.90;83.30
43520;DHT22;46848;51.980;5.918;2024-02-21T09:07:54;11.90;83.20
43520;DHT22;46848;51.980;5.918;2024-02-21T09:10:20;11.90;83.20
43520;DHT22;46848;51.980;5.918;2024-02-21T09:12:46;11.90;83.20
43520;DHT22;46848;51.980;5.918;2024-02-21T09:15:13;11.90;83.20
43520;DHT22;46848;51.980;5.918;2024-02-21T09:17:38;11.90;83.30
43520;DHT22;46848;51.980;5.918;2024-02-21T09:20:05;11.90;83.20
43520;DHT22;46848;51.980;5.918;2024-02-21T09:22:31;11.90;83.10
43520;DHT22;46848;51.980;5.918;2024-02-21T09:25:00;11.90;82.90
43520;DHT22;46848;51.980;5.918;2024-02-21T09:27:26;11.90;83.00
43520;DHT22;46848;51.980;5.918;2024-02-21T09:29:51;11.90;83.10
43520;DHT22;46848;51.980;5.918;2024-02-21T09:32:18;11.90;83.00
43520;DHT22;46848;51.980;5.918;2024-02-21T09:34:44;12.00;83.10
43520;DHT22;46848;51.980;5.918;2024-02-21T09:37:10;12.00;83.00
43520;DHT22;46848;51.980;5.918;2024-02-21T09:39:36;12.00;82.80
43520;DHT22;46848;51.980;5.918;2024-02-21T09:42:06;12.00;82.80
43520;DHT22;46848;51.980;5.918;2024-02-21T09:44:37;12.10;82.90
43520;DHT22;46848;51.980;5.918;2024-02-21T09:47:19;12.10;82.50
43520;DHT22;46848;51.980;5.918;2024-02-21T09:49:47;12.10;82.50
43520;DHT22;46848;51.980;5.918;2024-02-21T09:52:15;12.10;82.60
43520;DHT22;46848;51.980;5.918;2024-02-21T09:54:41;12.10;82.50
43520;DHT22;46848;51.980;5.918;2024-02-21T09:57:10;12.10;82.50
43520;DHT22;46848;51.980;5.918;2024-02-21T09:59:37;12.10;82.40
43520;DHT22;46848;51.980;5.918;2024-02-21T10:02:03;12.10;82.30
43520;DHT22;46848;51.980;5.918;2024-02-21T10:04:30;12.10;82.10
43520;DHT22;46848;51.980;5.918;2024-02-21T10:06:56;12.10;82.30
43520;DHT22;46848;51.980;5.918;2024-02-21T10:09:28;12.10;81.00
43520;DHT22;46848;51.980;5.918;2024-02-21T10:11:54;12.00;81.20
43520;DHT22;46848;51.980;5.918;2024-02-21T10:14:20;11.90;81.40
43520;DHT22;46848;51.980;5.918;2024-02-21T10:16:57;11.90;81.90
43520;DHT22;46848;51.980;5.918;2024-02-21T10:19:25;12.00;82.00
43520;DHT22;46848;51.980;5.918;2024-02-21T10:22:07;12.00;82.00
43520;DHT22;46848;51.980;5.918;2024-02-21T10:24:37;12.00;81.70
43520;DHT22;46848;51.980;5.918;2024-02-21T10:27:08;12.00;81.70
43520;DHT22;46848;51.980;5.918;2024-02-21T10:29:36;12.00;81.40
43520;DHT22;46848;51.980;5.918;2024-02-21T10:32:06;12.00;81.70
43520;DHT22;46848;51.980;5.918;2024-02-21T10:34:35;12.00;82.00
43520;DHT22;46848;51.980;5.918;2024-02-21T10:37:06;12.10;82.20
43520;DHT22;46848;51.980;5.918;2024-02-21T10:39:32;12.00;82.00
43520;DHT22;46848;51.980;5.918;2024-02-21T10:42:01;12.10;82.20
43520;DHT22;46848;51.980;5.918;2024-02-21T10:44:32;12.10;82.20
43520;DHT22;46848;51.980;5.918;2024-02-21T10:46:58;12.10;82.20
43520;DHT22;46848;51.980;5.918;2024-02-21T10:49:26;12.00;82.30
43520;DHT22;46848;51.980;5.918;2024-02-21T10:52:02;12.00;82.50
43520;DHT22;46848;51.980;5.918;2024-02-21T10:54:41;12.00;82.70
43520;DHT22;46848;51.980;5.918;2024-02-21T10:57:10;12.00;82.80
43520;DHT22;46848;51.980;5.918;2024-02-21T10:59:37;12.00;82.80
43520;DHT22;46848;51.980;5.918;2024-02-21T11:02:05;11.90;83.00
43520;DHT22;46848;51.980;5.918;2024-02-21T11:04:31;11.80;83.40
43520;DHT22;46848;51.980;5.918;2024-02-21T11:06:58;11.80;83.50
43520;DHT22;46848;51.980;5.918;2024-02-21T11:09:32;11.80;83.70
43520;DHT22;46848;51.980;5.918;2024-02-21T11:11:59;11.80;83.50
43520;DHT22;46848;51.980;5.918;2024-02-21T11:14:27;11.90;83.70
43520;DHT22;46848;51.980;5.918;2024-02-21T11:16:53;11.80;83.60
43520;DHT22;46848;51.980;5.918;2024-02-21T11:19:24;11.80;83.80
43520;DHT22;46848;51.980;5.918;2024-02-21T11:21:51;11.70;84.00
43520;DHT22;46848;51.980;5.918;2024-02-21T11:24:29;11.60;84.40
43520;DHT22;46848;51.980;5.918;2024-02-21T11:26:56;11.50;84.30
43520;DHT22;46848;51.980;5.918;2024-02-21T11:29:25;11.60;84.50
43520;DHT22;46848;51.980;5.918;2024-02-21T11:31:51;11.70;84.30
43520;DHT22;46848;51.980;5.918;2024-02-21T11:34:18;11.80;84.10
43520;DHT22;46848;51.980;5.918;2024-02-21T11:36:52;11.90;83.90
43520;DHT22;46848;51.980;5.918;2024-02-21T11:39:25;12.00;83.70
43520;DHT22;46848;51.980;5.918;2024-02-21T11:42:07;12.10;83.50
43520;DHT22;46848;51.980;5.918;2024-02-21T11:44:34;11.90;82.30
43520;DHT22;46848;51.980;5.918;2024-02-21T11:47:00;11.90;81.80
43520;DHT22;46848;51.980;5.918;2024-02-21T11:49:30;11.80;82.60
43520;DHT22;46848;51.980;5.918;2024-02-21T11:52:02;11.70;82.60
43520;DHT22;46848;51.980;5.918;2024-02-21T11:54:31;11.70;82.90
43520;DHT22;46848;51.980;5.918;2024-02-21T11:56:57;11.70;83.10
43520;DHT22;46848;51.980;5.918;2024-02-21T11:59:22;11.70;83.20
43520;DHT22;46848;51.980;5.918;2024-02-21T12:01:48;11.70;83.10
43520;DHT22;46848;51.980;5.918;2024-02-21T12:04:15;11.70;82.70
43520;DHT22;46848;51.980;5.918;2024-02-21T12:06:44;11.80;82.90
43520;DHT22;46848;51.980;5.918;2024-02-21T12:09:09;11.80;82.90
43520;DHT22;46848;51.980;5.918;2024-02-21T12:11:35;11.80;82.90
43520;DHT22;46848;51.980;5.918;2024-02-21T12:14:04;11.90;82.10
43520;DHT22;46848;51.980;5.918;2024-02-21T12:16:32;11.90;82.60
43520;DHT22;46848;51.980;5.918;2024-02-21T12:18:59;11.90;82.10
43520;DHT22;46848;51.980;5.918;2024-02-21T12:21:30;11.90;82.40
43520;DHT22;46848;51.980;5.918;2024-02-21T12:23:58;12.00;82.50
43520;DHT22;46848;51.980;5.918;2024-02-21T12:26:25;12.10;82.50
43520;DHT22;46848;51.980;5.918;2024-02-21T12:28:51;12.20;82.40
43520;DHT22;46848;51.980;5.918;2024-02-21T12:31:17;12.20;82.10
43520;DHT22;46848;51.980;5.918;2024-02-21T12:33:43;12.30;81.80
43520;DHT22;46848;51.980;5.918;2024-02-21T12:36:09;12.30;80.80
43520;DHT22;46848;51.980;5.918;2024-02-21T12:38:37;12.30;81.30
43520;DHT22;46848;51.980;5.918;2024-02-21T12:41:03;12.30;80.70
43520;DHT22;46848;51.980;5.918;2024-02-21T12:43:29;12.30;80.50
43520;DHT22;46848;51.980;5.918;2024-02-21T12:45:54;12.40;80.90
43520;DHT22;46848;51.980;5.918;2024-02-21T12:48:20;12.50;80.80
43520;DHT22;46848;51.980;5.918;2024-02-21T12:50:49;12.50;80.20
43520;DHT22;46848;51.980;5.918;2024-02-21T12:53:19;12.40;79.30
43520;DHT22;46848;51.980;5.918;2024-02-21T12:55:47;12.40;80.00
43520;DHT22;46848;51.980;5.918;2024-02-21T12:58:14;12.40;79.50
43520;DHT22;46848;51.980;5.918;2024-02-21T13:00:40;12.50;80.10
43520;DHT22;46848;51.980;5.918;2024-02-21T13:03:05;12.50;79.80
43520;DHT22;46848;51.980;5.918;2024-02-21T13:05:31;12.50;79.60
43520;DHT22;46848;51.980;5.918;2024-02-21T13:07:58;12.50;79.20
43520;DHT22;46848;51.980;5.918;2024-02-21T13:10:23;12.50;79.00
43520;DHT22;46848;51.980;5.918;2024-02-21T13:12:49;12.30;78.50
43520;DHT22;46848;51.980;5.918;2024-02-21T13:15:15;12.30;79.30
43520;DHT22;46848;51.980;5.918;2024-02-21T13:17:41;12.30;79.40
43520;DHT22;46848;51.980;5.918;2024-02-21T13:20:07;12.40;79.70
43520;DHT22;46848;51.980;5.918;2024-02-21T13:22:34;12.50;79.70
43520;DHT22;46848;51.980;5.918;2024-02-21T13:25:00;12.60;79.80
43520;DHT22;46848;51.980;5.918;2024-02-21T13:27:26;12.60;79.70
43520;DHT22;46848;51.980;5.918;2024-02-21T13:29:51;12.70;79.40
43520;DHT22;46848;51.980;5.918;2024-02-21T13:32:18;12.60;78.90
43520;DHT22;46848;51.980;5.918;2024-02-21T13:34:44;12.60;78.70
43520;DHT22;46848;51.980;5.918;2024-02-21T13:37:10;12.50;78.90
43520;DHT22;46848;51.980;5.918;2024-02-21T13:39:36;12.50;78.80
43520;DHT22;46848;51.980;5.918;2024-02-21T13:42:02;12.50;79.20
43520;DHT22;46848;51.980;5.918;2024-02-21T13:44:31;12.60;79.20
43520;DHT22;46848;51.980;5.918;2024-02-21T13:46:56;12.60;79.40
43520;DHT22;46848;51.980;5.918;2024-02-21T13:49:22;12.70;79.40
43520;DHT22;46848;51.980;5.918;2024-02-21T13:51:48;12.70;79.30
43520;DHT22;46848;51.980;5.918;2024-02-21T13:54:13;12.80;79.40
43520;DHT22;46848;51.980;5.918;2024-02-21T13:56:42;12.80;79.10
43520;DHT22;46848;51.980;5.918;2024-02-21T13:59:08;12.80;79.00
43520;DHT22;46848;51.980;5.918;2024-02-21T14:01:34;12.90;79.10
43520;DHT22;46848;51.980;5.918;2024-02-21T14:04:01;12.90;78.80
43520;DHT22;46848;51.980;5.918;2024-02-21T14:06:27;12.90;78.90
43520;DHT22;46848;51.980;5.918;2024-02-21T14:08:52;13.00;79.10
43520;DHT22;46848;51.980;5.918;2024-02-21T14:11:18;13.00;79.10
43520;DHT22;46848;51.980;5.918;2024-02-21T14:13:43;13.00;79.00
43520;DHT22;46848;51.980;5.918;2024-02-21T14:16:10;13.00;78.80
43520;DHT22;46848;51.980;5.918;2024-02-21T14:18:39;13.10;79.00
43520;DHT22;46848;51.980;5.918;2024-02-21T14:21:06;13.00;78.40
43520;DHT22;46848;51.980;5.918;2024-02-21T14:23:31;13.00;78.70
43520;DHT22;46848;51.980;5.918;2024-02-21T14:25:59;13.00;78.80
43520;DHT22;46848;51.980;5.918;2024-02-21T14:28:24;13.00;78.40
43520;DHT22;46848;51.980;5.918;2024-02-21T14:30:50;13.00;78.40
43520;DHT22;46848;51.980;5.918;2024-02-21T14:33:19;13.00;78.20
43520;DHT22;46848;51.980;5.918;2024-02-21T14:35:44;13.00;78.60
43520;DHT22;46848;51.980;5.918;2024-02-21T14:38:10;13.00;78.70
43520;DHT22;46848;51.980;5.918;2024-02-21T14:40:36;13.00;77.90
43520;DHT22;46848;51.980;5.918;2024-02-21T14:43:01;13.00;77.90
43520;DHT22;46848;51.980;5.918;2024-02-21T14:45:27;13.00;77.90
43520;DHT22;46848;51.980;5.918;2024-02-21T14:47:52;13.00;78.20
43520;DHT22;46848;51.980;5.918;2024-02-21T14:50:18;12.90;77.60
43520;DHT22;46848;51.980;5.918;2024-02-21T14:52:44;12.90;77.60
43520;DHT22;46848;51.980;5.918;2024-02-21T14:55:09;12.90;78.00
43520;DHT22;46848;51.980;5.918;2024-02-21T14:57:35;12.80;77.20
43520;DHT22;46848;51.980;5.918;2024-02-21T15:00:01;12.80;77.60
43520;DHT22;46848;51.980;5.918;2024-02-21T15:02:28;12.80;77.80
43520;DHT22;46848;51.980;5.918;2024-02-21T15:04:53;12.80;77.70
43520;DHT22;46848;51.980;5.918;2024-02-21T15:07:20;12.90;78.10
43520;DHT22;46848;51.980;5.918;2024-02-21T15:09:50;12.80;77.60
43520;DHT22;46848;51.980;5.918;2024-02-21T15:12:16;12.80;78.00
43520;DHT22;46848;51.980;5.918;2024-02-21T15:14:41;12.80;78.10
43520;DHT22;46848;51.980;5.918;2024-02-21T15:17:10;12.80;78.20
43520;DHT22;46848;51.980;5.918;2024-02-21T15:19:35;12.80;78.40
43520;DHT22;46848;51.980;5.918;2024-02-21T15:22:02;12.80;78.50
43520;DHT22;46848;51.980;5.918;2024-02-21T15:24:28;12.80;78.30
43520;DHT22;46848;51.980;5.918;2024-02-21T15:26:54;12.70;78.10